sensor_id;sensor_type;location;lat;lon;timestamp;P1;durP1;ratioP1;P2;durP2;ratioP2
35835;SDS011;21955;50.580;7.228;2022-09-25T00:02:19;24.15;;;14.65;;
35835;SDS011;21955;50.580;7.228;2022-09-25T00:04:46;23.65;;;15.02;;
35835;SDS011;21955;50.580;7.228;2022-09-25T00:07:13;23.87;;;14.87;;
35835;SDS011;21955;50.580;7.228;2022-09-25T00:09:40;24.70;;;15.35;;
35835;SDS011;21955;50.580;7.228;2022-09-25T00:12:07;26.92;;;16.05;;
35835;SDS011;21955;50.580;7.228;2022-09-25T00:14:34;27.63;;;17.05;;
35835;SDS011;21955;50.580;7.228;2022-09-25T00:17:01;27.73;;;16.65;;
35835;SDS011;21955;50.580;7.228;2022-09-25T00:19:30;27.55;;;17.10;;
35835;SDS011;21955;50.580;7.228;2022-09-25T00:22:11;29.07;;;17.93;;
35835;SDS011;21955;50.580;7.228;2022-09-25T00:24:38;28.10;;;17.45;;
35835;SDS011;21955;50.580;7.228;2022-09-25T00:27:05;31.98;;;19.38;;
35835;SDS011;21955;50.580;7.228;2022-09-25T00:29:32;30.50;;;18.77;;
35835;SDS011;21955;50.580;7.228;2022-09-25T00:32:00;31.70;;;19.52;;
35835;SDS011;21955;50.580;7.228;2022-09-25T00:34:27;32.47;;;19.67;;
35835;SDS011;21955;50.580;7.228;2022-09-25T00:36:55;33.77;;;20.13;;
35835;SDS011;21955;50.580;7.228;2022-09-25T00:39:23;33.53;;;20.25;;
35835;SDS011;21955;50.580;7.228;2022-09-25T00:41:50;36.07;;;20.67;;
35835;SDS011;21955;50.580;7.228;2022-09-25T00:47:03;36.00;;;22.40;;
35835;SDS011;21955;50.580;7.228;2022-09-25T00:49:30;37.35;;;22.45;;
35835;SDS011;21955;50.580;7.228;2022-09-25T00:52:00;39.88;;;23.02;;
35835;SDS011;21955;50.580;7.228;2022-09-25T00:54:28;38.40;;;22.88;;
35835;SDS011;21955;50.580;7.228;2022-09-25T00:56:57;40.88;;;23.75;;
35835;SDS011;21955;50.580;7.228;2022-09-25T00:59:25;39.17;;;22.95;;
35835;SDS011;21955;50.580;7.228;2022-09-25T01:01:53;40.93;;;24.20;;
35835;SDS011;21955;50.580;7.228;2022-09-25T01:04:20;41.08;;;23.92;;
35835;SDS011;21955;50.580;7.228;2022-09-25T01:06:47;42.10;;;24.25;;
35835;SDS011;21955;50.580;7.228;2022-09-25T01:09:16;39.88;;;24.15;;
35835;SDS011;21955;50.580;7.228;2022-09-25T01:11:44;40.97;;;24.57;;
35835;SDS011;21955;50.580;7.228;2022-09-25T01:14:11;42.77;;;24.70;;
35835;SDS011;21955;50.580;7.228;2022-09-25T01:16:42;39.55;;;24.00;;
35835;SDS011;21955;50.580;7.228;2022-09-25T01:19:14;39.90;;;23.88;;
35835;SDS011;21955;50.580;7.228;2022-09-25T01:21:45;41.92;;;24.23;;
35835;SDS011;21955;50.580;7.228;2022-09-25T01:24:22;41.10;;;23.77;;
35835;SDS011;21955;50.580;7.228;2022-09-25T01:27:08;42.45;;;24.20;;
35835;SDS011;21955;50.580;7.228;2022-09-25T01:29:43;42.67;;;25.08;;
35835;SDS011;21955;50.580;7.228;2022-09-25T01:32:12;41.70;;;24.37;;
35835;SDS011;21955;50.580;7.228;2022-09-25T01:34:44;41.50;;;24.75;;
35835;SDS011;21955;50.580;7.228;2022-09-25T01:37:14;43.50;;;24.27;;
35835;SDS011;21955;50.580;7.228;2022-09-25T01:39:45;41.30;;;24.33;;
35835;SDS011;21955;50.580;7.228;2022-09-25T01:42:14;41.38;;;24.40;;
35835;SDS011;21955;50.580;7.228;2022-09-25T01:44:44;43.58;;;25.10;;
35835;SDS011;21955;50.580;7.228;2022-09-25T01:47:13;41.23;;;23.57;;
35835;SDS011;21955;50.580;7.228;2022-09-25T01:49:43;41.85;;;24.13;;
35835;SDS011;21955;50.580;7.228;2022-09-25T01:52:13;39.85;;;23.02;;
35835;SDS011;21955;50.580;7.228;2022-09-25T01:54:42;40.25;;;22.88;;
35835;SDS011;21955;50.580;7.228;2022-09-25T01:57:11;42.43;;;23.70;;
35835;SDS011;21955;50.580;7.228;2022-09-25T01:59:40;38.75;;;23.40;;
35835;SDS011;21955;50.580;7.228;2022-09-25T02:02:13;39.95;;;22.63;;
35835;SDS011;21955;50.580;7.228;2022-09-25T02:04:43;40.42;;;22.58;;
35835;SDS011;21955;50.580;7.228;2022-09-25T02:07:13;39.67;;;22.15;;
35835;SDS011;21955;50.580;7.228;2022-09-25T02:09:42;39.30;;;22.23;;
35835;SDS011;21955;50.580;7.228;2022-09-25T02:12:11;38.78;;;22.67;;
35835;SDS011;21955;50.580;7.228;2022-09-25T02:14:41;39.20;;;22.73;;
35835;SDS011;21955;50.580;7.228;2022-09-25T02:17:12;40.42;;;22.70;;
35835;SDS011;21955;50.580;7.228;2022-09-25T02:20:00;40.23;;;22.90;;
35835;SDS011;21955;50.580;7.228;2022-09-25T02:22:45;40.25;;;23.42;;
35835;SDS011;21955;50.580;7.228;2022-09-25T02:25:14;37.95;;;22.13;;
35835;SDS011;21955;50.580;7.228;2022-09-25T02:27:42;40.33;;;23.02;;
35835;SDS011;21955;50.580;7.228;2022-09-25T02:30:09;39.67;;;23.58;;
35835;SDS011;21955;50.580;7.228;2022-09-25T02:32:38;41.13;;;22.97;;
35835;SDS011;21955;50.580;7.228;2022-09-25T02:35:05;42.17;;;22.67;;
35835;SDS011;21955;50.580;7.228;2022-09-25T02:37:32;42.28;;;22.88;;
35835;SDS011;21955;50.580;7.228;2022-09-25T02:40:00;39.20;;;22.50;;
35835;SDS011;21955;50.580;7.228;2022-09-25T02:42:30;41.60;;;22.63;;
35835;SDS011;21955;50.580;7.228;2022-09-25T02:45:08;39.80;;;22.67;;
35835;SDS011;21955;50.580;7.228;2022-09-25T02:47:41;40.17;;;22.55;;
35835;SDS011;21955;50.580;7.228;2022-09-25T02:50:12;38.08;;;22.35;;
35835;SDS011;21955;50.580;7.228;2022-09-25T02:52:42;38.90;;;21.70;;
35835;SDS011;21955;50.580;7.228;2022-09-25T02:55:14;36.65;;;21.52;;
35835;SDS011;21955;50.580;7.228;2022-09-25T02:57:44;36.33;;;21.45;;
35835;SDS011;21955;50.580;7.228;2022-09-25T03:00:14;38.35;;;22.33;;
35835;SDS011;21955;50.580;7.228;2022-09-25T03:02:43;38.45;;;21.40;;
35835;SDS011;21955;50.580;7.228;2022-09-25T03:05:11;39.88;;;22.45;;
35835;SDS011;21955;50.580;7.228;2022-09-25T03:07:39;37.70;;;21.83;;
35835;SDS011;21955;50.580;7.228;2022-09-25T03:10:29;36.65;;;21.10;;
35835;SDS011;21955;50.580;7.228;2022-09-25T03:13:03;37.58;;;21.25;;
35835;SDS011;21955;50.580;7.228;2022-09-25T03:15:38;34.60;;;20.35;;
35835;SDS011;21955;50.580;7.228;2022-09-25T03:18:07;38.42;;;21.00;;
35835;SDS011;21955;50.580;7.228;2022-09-25T03:20:35;37.72;;;20.42;;
35835;SDS011;21955;50.580;7.228;2022-09-25T03:23:02;37.78;;;21.20;;
35835;SDS011;21955;50.580;7.228;2022-09-25T03:25:29;38.33;;;21.85;;
35835;SDS011;21955;50.580;7.228;2022-09-25T03:27:56;36.97;;;21.58;;
35835;SDS011;21955;50.580;7.228;2022-09-25T03:30:23;37.67;;;21.85;;
35835;SDS011;21955;50.580;7.228;2022-09-25T03:32:50;36.33;;;20.50;;
35835;SDS011;21955;50.580;7.228;2022-09-25T03:35:19;35.80;;;20.70;;
35835;SDS011;21955;50.580;7.228;2022-09-25T03:37:46;36.30;;;20.30;;
35835;SDS011;21955;50.580;7.228;2022-09-25T03:40:13;36.40;;;20.38;;
35835;SDS011;21955;50.580;7.228;2022-09-25T03:42:42;32.15;;;18.90;;
35835;SDS011;21955;50.580;7.228;2022-09-25T03:45:09;31.50;;;17.90;;
35835;SDS011;21955;50.580;7.228;2022-09-25T03:47:36;30.90;;;18.03;;
35835;SDS011;21955;50.580;7.228;2022-09-25T03:50:04;30.08;;;17.70;;
35835;SDS011;21955;50.580;7.228;2022-09-25T03:52:33;31.98;;;18.85;;
35835;SDS011;21955;50.580;7.228;2022-09-25T03:55:01;30.15;;;16.98;;
35835;SDS011;21955;50.580;7.228;2022-09-25T03:57:28;29.27;;;16.90;;
35835;SDS011;21955;50.580;7.228;2022-09-25T03:59:55;28.40;;;16.35;;
35835;SDS011;21955;50.580;7.228;2022-09-25T04:02:25;30.00;;;17.57;;
35835;SDS011;21955;50.580;7.228;2022-09-25T04:04:52;29.90;;;17.42;;
35835;SDS011;21955;50.580;7.228;2022-09-25T04:07:20;29.67;;;17.58;;
35835;SDS011;21955;50.580;7.228;2022-09-25T04:09:49;30.00;;;18.17;;
35835;SDS011;21955;50.580;7.228;2022-09-25T04:12:16;31.43;;;17.67;;
35835;SDS011;21955;50.580;7.228;2022-09-25T04:14:43;32.40;;;18.50;;
35835;SDS011;21955;50.580;7.228;2022-09-25T04:17:10;30.37;;;18.00;;
35835;SDS011;21955;50.580;7.228;2022-09-25T04:19:38;33.45;;;19.13;;
35835;SDS011;21955;50.580;7.228;2022-09-25T04:22:05;32.03;;;18.40;;
35835;SDS011;21955;50.580;7.228;2022-09-25T04:24:32;32.28;;;18.65;;
35835;SDS011;21955;50.580;7.228;2022-09-25T04:27:16;30.85;;;18.23;;
35835;SDS011;21955;50.580;7.228;2022-09-25T04:29:44;30.95;;;18.15;;
35835;SDS011;21955;50.580;7.228;2022-09-25T04:32:11;32.35;;;18.38;;
35835;SDS011;21955;50.580;7.228;2022-09-25T04:34:56;33.33;;;18.90;;
35835;SDS011;21955;50.580;7.228;2022-09-25T04:37:23;33.58;;;18.90;;
35835;SDS011;21955;50.580;7.228;2022-09-25T04:39:51;32.28;;;18.05;;
35835;SDS011;21955;50.580;7.228;2022-09-25T04:42:19;33.15;;;18.67;;
35835;SDS011;21955;50.580;7.228;2022-09-25T04:44:48;31.17;;;17.48;;
35835;SDS011;21955;50.580;7.228;2022-09-25T04:47:16;30.60;;;16.73;;
35835;SDS011;21955;50.580;7.228;2022-09-25T04:49:43;30.23;;;17.55;;
35835;SDS011;21955;50.580;7.228;2022-09-25T04:52:10;31.20;;;17.13;;
35835;SDS011;21955;50.580;7.228;2022-09-25T04:54:39;31.17;;;17.38;;
35835;SDS011;21955;50.580;7.228;2022-09-25T04:57:06;28.17;;;16.10;;
35835;SDS011;21955;50.580;7.228;2022-09-25T04:59:34;27.43;;;16.03;;
35835;SDS011;21955;50.580;7.228;2022-09-25T05:02:01;27.67;;;14.90;;
35835;SDS011;21955;50.580;7.228;2022-09-25T05:04:28;25.33;;;13.83;;
35835;SDS011;21955;50.580;7.228;2022-09-25T05:06:56;23.98;;;14.00;;
35835;SDS011;21955;50.580;7.228;2022-09-25T05:09:23;22.25;;;13.43;;
35835;SDS011;21955;50.580;7.228;2022-09-25T05:11:50;22.42;;;13.52;;
35835;SDS011;21955;50.580;7.228;2022-09-25T05:14:17;24.00;;;14.45;;
35835;SDS011;21955;50.580;7.228;2022-09-25T05:16:45;25.40;;;14.10;;
35835;SDS011;21955;50.580;7.228;2022-09-25T05:19:12;22.20;;;13.55;;
35835;SDS011;21955;50.580;7.228;2022-09-25T05:21:39;22.30;;;13.38;;
35835;SDS011;21955;50.580;7.228;2022-09-25T05:24:07;22.92;;;13.60;;
35835;SDS011;21955;50.580;7.228;2022-09-25T05:26:34;22.65;;;13.15;;
35835;SDS011;21955;50.580;7.228;2022-09-25T05:29:01;21.40;;;13.25;;
35835;SDS011;21955;50.580;7.228;2022-09-25T05:31:28;22.35;;;13.95;;
35835;SDS011;21955;50.580;7.228;2022-09-25T05:33:57;23.80;;;14.30;;
35835;SDS011;21955;50.580;7.228;2022-09-25T05:36:24;24.60;;;14.85;;
35835;SDS011;21955;50.580;7.228;2022-09-25T05:38:52;25.88;;;15.10;;
35835;SDS011;21955;50.580;7.228;2022-09-25T05:41:19;28.37;;;15.73;;
35835;SDS011;21955;50.580;7.228;2022-09-25T05:43:46;23.37;;;14.37;;
35835;SDS011;21955;50.580;7.228;2022-09-25T05:46:14;24.58;;;15.05;;
35835;SDS011;21955;50.580;7.228;2022-09-25T05:48:41;26.92;;;15.30;;
35835;SDS011;21955;50.580;7.228;2022-09-25T05:51:10;26.75;;;15.57;;
35835;SDS011;21955;50.580;7.228;2022-09-25T05:53:37;28.05;;;15.70;;
35835;SDS011;21955;50.580;7.228;2022-09-25T05:56:04;27.65;;;16.10;;
35835;SDS011;21955;50.580;7.228;2022-09-25T05:58:32;31.20;;;16.90;;
35835;SDS011;21955;50.580;7.228;2022-09-25T06:01:00;28.67;;;16.42;;
35835;SDS011;21955;50.580;7.228;2022-09-25T06:03:28;29.10;;;16.17;;
35835;SDS011;21955;50.580;7.228;2022-09-25T06:05:55;28.33;;;15.63;;
35835;SDS011;21955;50.580;7.228;2022-09-25T06:08:23;26.27;;;15.60;;
35835;SDS011;21955;50.580;7.228;2022-09-25T06:10:51;26.95;;;16.10;;
35835;SDS011;21955;50.580;7.228;2022-09-25T06:13:19;28.90;;;15.75;;
35835;SDS011;21955;50.580;7.228;2022-09-25T06:15:47;27.20;;;14.85;;
35835;SDS011;21955;50.580;7.228;2022-09-25T06:18:16;26.45;;;14.13;;
35835;SDS011;21955;50.580;7.228;2022-09-25T06:20:44;25.88;;;13.73;;
35835;SDS011;21955;50.580;7.228;2022-09-25T06:23:11;25.23;;;14.07;;
35835;SDS011;21955;50.580;7.228;2022-09-25T06:25:39;23.77;;;13.32;;
35835;SDS011;21955;50.580;7.228;2022-09-25T06:28:06;22.50;;;13.32;;
35835;SDS011;21955;50.580;7.228;2022-09-25T06:30:34;24.98;;;12.77;;
35835;SDS011;21955;50.580;7.228;2022-09-25T06:33:03;26.00;;;12.95;;
35835;SDS011;21955;50.580;7.228;2022-09-25T06:35:31;24.40;;;12.65;;
35835;SDS011;21955;50.580;7.228;2022-09-25T06:37:59;23.50;;;12.75;;
35835;SDS011;21955;50.580;7.228;2022-09-25T06:40:27;24.20;;;12.75;;
35835;SDS011;21955;50.580;7.228;2022-09-25T06:42:56;21.83;;;12.10;;
35835;SDS011;21955;50.580;7.228;2022-09-25T06:45:24;21.80;;;11.50;;
35835;SDS011;21955;50.580;7.228;2022-09-25T06:47:51;23.75;;;13.20;;
35835;SDS011;21955;50.580;7.228;2022-09-25T06:50:21;19.05;;;11.32;;
35835;SDS011;21955;50.580;7.228;2022-09-25T06:52:55;19.25;;;10.68;;
35835;SDS011;21955;50.580;7.228;2022-09-25T06:55:23;21.92;;;11.23;;
35835;SDS011;21955;50.580;7.228;2022-09-25T06:57:50;18.02;;;10.32;;
35835;SDS011;21955;50.580;7.228;2022-09-25T07:00:19;20.73;;;10.20;;
35835;SDS011;21955;50.580;7.228;2022-09-25T07:02:46;17.80;;;9.57;;
35835;SDS011;21955;50.580;7.228;2022-09-25T07:05:31;20.25;;;9.57;;
35835;SDS011;21955;50.580;7.228;2022-09-25T07:07:58;17.37;;;9.30;;
35835;SDS011;21955;50.580;7.228;2022-09-25T07:10:25;16.23;;;9.40;;
35835;SDS011;21955;50.580;7.228;2022-09-25T07:12:52;18.38;;;9.25;;
35835;SDS011;21955;50.580;7.228;2022-09-25T07:15:21;19.65;;;9.43;;
35835;SDS011;21955;50.580;7.228;2022-09-25T07:17:48;17.08;;;8.90;;
35835;SDS011;21955;50.580;7.228;2022-09-25T07:20:15;21.02;;;9.25;;
35835;SDS011;21955;50.580;7.228;2022-09-25T07:22:42;18.40;;;8.32;;
35835;SDS011;21955;50.580;7.228;2022-09-25T07:25:09;15.48;;;7.68;;
35835;SDS011;21955;50.580;7.228;2022-09-25T07:27:38;16.30;;;7.75;;
35835;SDS011;21955;50.580;7.228;2022-09-25T07:30:06;13.40;;;6.68;;
35835;SDS011;21955;50.580;7.228;2022-09-25T07:32:35;14.90;;;7.20;;
35835;SDS011;21955;50.580;7.228;2022-09-25T07:35:02;17.88;;;6.80;;
35835;SDS011;21955;50.580;7.228;2022-09-25T07:37:29;16.17;;;7.30;;
35835;SDS011;21955;50.580;7.228;2022-09-25T07:39:56;16.95;;;7.70;;
35835;SDS011;21955;50.580;7.228;2022-09-25T07:42:23;14.45;;;7.00;;
35835;SDS011;21955;50.580;7.228;2022-09-25T07:44:50;15.93;;;6.55;;
35835;SDS011;21955;50.580;7.228;2022-09-25T07:47:17;13.77;;;6.57;;
35835;SDS011;21955;50.580;7.228;2022-09-25T07:49:46;11.88;;;5.93;;
35835;SDS011;21955;50.580;7.228;2022-09-25T07:52:13;12.52;;;5.93;;
35835;SDS011;21955;50.580;7.228;2022-09-25T07:54:40;11.88;;;5.60;;
35835;SDS011;21955;50.580;7.228;2022-09-25T07:57:07;11.02;;;4.90;;
35835;SDS011;21955;50.580;7.228;2022-09-25T07:59:35;14.50;;;5.25;;
35835;SDS011;21955;50.580;7.228;2022-09-25T08:02:02;10.43;;;4.82;;
35835;SDS011;21955;50.580;7.228;2022-09-25T08:04:29;12.93;;;4.72;;
35835;SDS011;21955;50.580;7.228;2022-09-25T08:06:58;12.07;;;4.50;;
35835;SDS011;21955;50.580;7.228;2022-09-25T08:09:25;12.40;;;4.82;;
35835;SDS011;21955;50.580;7.228;2022-09-25T08:11:52;10.87;;;4.47;;
35835;SDS011;21955;50.580;7.228;2022-09-25T08:14:19;13.87;;;4.00;;
35835;SDS011;21955;50.580;7.228;2022-09-25T08:16:46;12.27;;;4.30;;
35835;SDS011;21955;50.580;7.228;2022-09-25T08:19:13;13.27;;;4.72;;
35835;SDS011;21955;50.580;7.228;2022-09-25T08:21:42;13.02;;;4.72;;
35835;SDS011;21955;50.580;7.228;2022-09-25T08:24:11;11.93;;;4.40;;
35835;SDS011;21955;50.580;7.228;2022-09-25T08:26:38;9.10;;;3.50;;
35835;SDS011;21955;50.580;7.228;2022-09-25T08:29:05;12.80;;;3.95;;
35835;SDS011;21955;50.580;7.228;2022-09-25T08:31:33;10.50;;;3.42;;
35835;SDS011;21955;50.580;7.228;2022-09-25T08:34:00;11.02;;;3.60;;
35835;SDS011;21955;50.580;7.228;2022-09-25T08:36:27;9.25;;;3.47;;
35835;SDS011;21955;50.580;7.228;2022-09-25T08:38:54;8.60;;;3.50;;
35835;SDS011;21955;50.580;7.228;2022-09-25T08:41:24;12.43;;;3.75;;
35835;SDS011;21955;50.580;7.228;2022-09-25T08:43:55;10.63;;;3.80;;
35835;SDS011;21955;50.580;7.228;2022-09-25T08:46:24;12.80;;;3.80;;
35835;SDS011;21955;50.580;7.228;2022-09-25T08:49:12;10.80;;;3.63;;
35835;SDS011;21955;50.580;7.228;2022-09-25T08:51:40;11.27;;;3.35;;
35835;SDS011;21955;50.580;7.228;2022-09-25T08:54:08;8.90;;;3.20;;
35835;SDS011;21955;50.580;7.228;2022-09-25T08:56:40;10.32;;;3.47;;
35835;SDS011;21955;50.580;7.228;2022-09-25T08:59:09;9.20;;;3.20;;
35835;SDS011;21955;50.580;7.228;2022-09-25T09:01:44;9.05;;;3.10;;
35835;SDS011;21955;50.580;7.228;2022-09-25T09:04:13;10.60;;;3.50;;
35835;SDS011;21955;50.580;7.228;2022-09-25T09:06:43;12.27;;;3.42;;
35835;SDS011;21955;50.580;7.228;2022-09-25T09:09:10;11.77;;;3.30;;
35835;SDS011;21955;50.580;7.228;2022-09-25T09:11:40;13.30;;;3.65;;
35835;SDS011;21955;50.580;7.228;2022-09-25T09:14:10;11.88;;;3.70;;
35835;SDS011;21955;50.580;7.228;2022-09-25T09:16:40;9.55;;;3.47;;
35835;SDS011;21955;50.580;7.228;2022-09-25T09:19:08;9.95;;;3.30;;
35835;SDS011;21955;50.580;7.228;2022-09-25T09:21:36;11.40;;;3.05;;
35835;SDS011;21955;50.580;7.228;2022-09-25T09:24:04;9.30;;;3.40;;
35835;SDS011;21955;50.580;7.228;2022-09-25T09:26:34;10.98;;;3.00;;
35835;SDS011;21955;50.580;7.228;2022-09-25T09:29:21;10.38;;;3.50;;
35835;SDS011;21955;50.580;7.228;2022-09-25T09:31:52;8.32;;;3.00;;
35835;SDS011;21955;50.580;7.228;2022-09-25T09:34:30;7.63;;;3.00;;
35835;SDS011;21955;50.580;7.228;2022-09-25T09:37:00;12.35;;;3.40;;
35835;SDS011;21955;50.580;7.228;2022-09-25T09:39:31;9.50;;;3.30;;
35835;SDS011;21955;50.580;7.228;2022-09-25T09:42:03;9.32;;;2.75;;
35835;SDS011;21955;50.580;7.228;2022-09-25T09:44:38;11.97;;;3.30;;
35835;SDS011;21955;50.580;7.228;2022-09-25T09:47:19;9.48;;;2.75;;
35835;SDS011;21955;50.580;7.228;2022-09-25T09:49:50;11.65;;;2.80;;
35835;SDS011;21955;50.580;7.228;2022-09-25T09:52:19;8.48;;;3.03;;
35835;SDS011;21955;50.580;7.228;2022-09-25T09:54:48;12.37;;;3.00;;
35835;SDS011;21955;50.580;7.228;2022-09-25T09:57:19;9.32;;;3.15;;
35835;SDS011;21955;50.580;7.228;2022-09-25T09:59:50;10.48;;;3.13;;
35835;SDS011;21955;50.580;7.228;2022-09-25T10:02:28;9.82;;;2.58;;
35835;SDS011;21955;50.580;7.228;2022-09-25T10:04:56;7.32;;;2.47;;
35835;SDS011;21955;50.580;7.228;2022-09-25T10:07:25;11.77;;;3.07;;
35835;SDS011;21955;50.580;7.228;2022-09-25T10:09:54;9.80;;;3.17;;
35835;SDS011;21955;50.580;7.228;2022-09-25T10:12:23;8.43;;;3.03;;
35835;SDS011;21955;50.580;7.228;2022-09-25T10:14:54;12.13;;;3.17;;
35835;SDS011;21955;50.580;7.228;2022-09-25T10:17:21;9.07;;;2.72;;
35835;SDS011;21955;50.580;7.228;2022-09-25T10:19:50;7.50;;;2.63;;
35835;SDS011;21955;50.580;7.228;2022-09-25T10:22:18;7.43;;;3.13;;
35835;SDS011;21955;50.580;7.228;2022-09-25T10:24:50;9.27;;;3.50;;
35835;SDS011;21955;50.580;7.228;2022-09-25T10:30:16;12.43;;;3.67;;
35835;SDS011;21955;50.580;7.228;2022-09-25T10:32:45;9.70;;;3.25;;
35835;SDS011;21955;50.580;7.228;2022-09-25T10:35:13;8.30;;;3.28;;
35835;SDS011;21955;50.580;7.228;2022-09-25T10:37:41;12.05;;;3.60;;
35835;SDS011;21955;50.580;7.228;2022-09-25T10:40:20;8.32;;;3.78;;
35835;SDS011;21955;50.580;7.228;2022-09-25T10:42:49;10.73;;;3.78;;
35835;SDS011;21955;50.580;7.228;2022-09-25T10:45:29;8.63;;;3.22;;
35835;SDS011;21955;50.580;7.228;2022-09-25T10:47:56;10.90;;;3.60;;
35835;SDS011;21955;50.580;7.228;2022-09-25T10:50:41;8.65;;;3.70;;
35835;SDS011;21955;50.580;7.228;2022-09-25T10:53:22;10.18;;;3.40;;
35835;SDS011;21955;50.580;7.228;2022-09-25T10:55:52;9.15;;;3.20;;
35835;SDS011;21955;50.580;7.228;2022-09-25T10:58:25;7.63;;;3.00;;
35835;SDS011;21955;50.580;7.228;2022-09-25T11:00:57;8.52;;;2.65;;
35835;SDS011;21955;50.580;7.228;2022-09-25T11:03:25;6.80;;;3.20;;
35835;SDS011;21955;50.580;7.228;2022-09-25T11:05:53;8.50;;;2.83;;
35835;SDS011;21955;50.580;7.228;2022-09-25T11:08:22;9.10;;;3.30;;
35835;SDS011;21955;50.580;7.228;2022-09-25T11:10:50;7.25;;;2.67;;
35835;SDS011;21955;50.580;7.228;2022-09-25T11:13:19;12.38;;;2.67;;
35835;SDS011;21955;50.580;7.228;2022-09-25T11:15:48;10.27;;;3.88;;
35835;SDS011;21955;50.580;7.228;2022-09-25T11:18:31;6.68;;;3.00;;
35835;SDS011;21955;50.580;7.228;2022-09-25T11:21:00;9.15;;;2.60;;
35835;SDS011;21955;50.580;7.228;2022-09-25T11:23:28;6.90;;;2.38;;
35835;SDS011;21955;50.580;7.228;2022-09-25T11:25:58;11.10;;;3.00;;
35835;SDS011;21955;50.580;7.228;2022-09-25T11:28:30;5.40;;;2.10;;
35835;SDS011;21955;50.580;7.228;2022-09-25T11:30:59;7.47;;;2.27;;
35835;SDS011;21955;50.580;7.228;2022-09-25T11:33:31;7.35;;;2.28;;
35835;SDS011;21955;50.580;7.228;2022-09-25T11:36:02;7.50;;;2.20;;
35835;SDS011;21955;50.580;7.228;2022-09-25T11:38:32;6.53;;;1.80;;
35835;SDS011;21955;50.580;7.228;2022-09-25T11:41:20;9.63;;;2.65;;
35835;SDS011;21955;50.580;7.228;2022-09-25T11:43:55;7.25;;;2.05;;
35835;SDS011;21955;50.580;7.228;2022-09-25T11:46:26;8.45;;;2.03;;
35835;SDS011;21955;50.580;7.228;2022-09-25T11:49:01;7.50;;;1.75;;
35835;SDS011;21955;50.580;7.228;2022-09-25T11:51:39;8.15;;;1.77;;
35835;SDS011;21955;50.580;7.228;2022-09-25T11:54:12;8.25;;;2.00;;
35835;SDS011;21955;50.580;7.228;2022-09-25T11:56:46;7.60;;;1.60;;
35835;SDS011;21955;50.580;7.228;2022-09-25T11:59:22;4.95;;;1.70;;
35835;SDS011;21955;50.580;7.228;2022-09-25T12:01:56;7.75;;;1.35;;
35835;SDS011;21955;50.580;7.228;2022-09-25T12:04:38;6.80;;;1.40;;
35835;SDS011;21955;50.580;7.228;2022-09-25T12:07:18;5.70;;;1.30;;
35835;SDS011;21955;50.580;7.228;2022-09-25T12:09:53;4.50;;;1.23;;
35835;SDS011;21955;50.580;7.228;2022-09-25T12:12:24;5.90;;;1.17;;
35835;SDS011;21955;50.580;7.228;2022-09-25T12:14:57;5.85;;;1.33;;
35835;SDS011;21955;50.580;7.228;2022-09-25T12:17:28;7.43;;;1.52;;
35835;SDS011;21955;50.580;7.228;2022-09-25T12:19:59;5.10;;;1.30;;
35835;SDS011;21955;50.580;7.228;2022-09-25T12:22:35;3.90;;;1.20;;
35835;SDS011;21955;50.580;7.228;2022-09-25T12:25:13;6.82;;;1.33;;
35835;SDS011;21955;50.580;7.228;2022-09-25T12:27:44;3.78;;;1.13;;
35835;SDS011;21955;50.580;7.228;2022-09-25T12:30:16;7.63;;;1.30;;
35835;SDS011;21955;50.580;7.228;2022-09-25T12:32:54;5.50;;;1.20;;
35835;SDS011;21955;50.580;7.228;2022-09-25T12:35:31;5.85;;;1.10;;
35835;SDS011;21955;50.580;7.228;2022-09-25T12:38:00;6.13;;;1.20;;
35835;SDS011;21955;50.580;7.228;2022-09-25T12:40:30;5.00;;;1.27;;
35835;SDS011;21955;50.580;7.228;2022-09-25T12:42:59;6.13;;;1.17;;
35835;SDS011;21955;50.580;7.228;2022-09-25T12:45:29;6.75;;;1.42;;
35835;SDS011;21955;50.580;7.228;2022-09-25T12:48:03;3.85;;;1.17;;
35835;SDS011;21955;50.580;7.228;2022-09-25T12:50:40;9.77;;;3.50;;
35835;SDS011;21955;50.580;7.228;2022-09-25T12:53:12;33.40;;;12.90;;
35835;SDS011;21955;50.580;7.228;2022-09-25T12:55:47;11.73;;;3.83;;
35835;SDS011;21955;50.580;7.228;2022-09-25T12:58:16;9.65;;;3.35;;
35835;SDS011;21955;50.580;7.228;2022-09-25T13:00:48;14.48;;;6.50;;
35835;SDS011;21955;50.580;7.228;2022-09-25T13:03:17;4.50;;;1.10;;
35835;SDS011;21955;50.580;7.228;2022-09-25T13:05:49;5.37;;;1.50;;
35835;SDS011;21955;50.580;7.228;2022-09-25T13:08:20;4.53;;;1.33;;
35835;SDS011;21955;50.580;7.228;2022-09-25T13:10:50;6.05;;;2.38;;
35835;SDS011;21955;50.580;7.228;2022-09-25T13:13:19;3.35;;;0.90;;
35835;SDS011;21955;50.580;7.228;2022-09-25T13:15:49;7.10;;;2.80;;
35835;SDS011;21955;50.580;7.228;2022-09-25T13:18:18;7.43;;;2.90;;
35835;SDS011;21955;50.580;7.228;2022-09-25T13:20:46;6.85;;;1.60;;
35835;SDS011;21955;50.580;7.228;2022-09-25T13:23:24;5.85;;;2.13;;
35835;SDS011;21955;50.580;7.228;2022-09-25T13:25:52;4.93;;;1.50;;
35835;SDS011;21955;50.580;7.228;2022-09-25T13:28:25;6.38;;;2.40;;
35835;SDS011;21955;50.580;7.228;2022-09-25T13:31:00;4.63;;;1.63;;
35835;SDS011;21955;50.580;7.228;2022-09-25T13:33:28;3.88;;;1.50;;
35835;SDS011;21955;50.580;7.228;2022-09-25T13:36:06;4.65;;;1.50;;
35835;SDS011;21955;50.580;7.228;2022-09-25T13:38:39;3.58;;;1.10;;
35835;SDS011;21955;50.580;7.228;2022-09-25T13:41:24;2.65;;;0.90;;
35835;SDS011;21955;50.580;7.228;2022-09-25T13:46:35;3.03;;;1.10;;
35835;SDS011;21955;50.580;7.228;2022-09-25T13:49:31;5.60;;;1.57;;
35835;SDS011;21955;50.580;7.228;2022-09-25T13:51:58;8.50;;;4.10;;
35835;SDS011;21955;50.580;7.228;2022-09-25T13:54:27;5.43;;;2.00;;
35835;SDS011;21955;50.580;7.228;2022-09-25T13:56:54;5.93;;;1.10;;
35835;SDS011;21955;50.580;7.228;2022-09-25T13:59:22;5.38;;;1.30;;
35835;SDS011;21955;50.580;7.228;2022-09-25T14:01:51;4.40;;;1.00;;
35835;SDS011;21955;50.580;7.228;2022-09-25T14:07:11;4.80;;;1.50;;
35835;SDS011;21955;50.580;7.228;2022-09-25T14:09:42;2.67;;;0.90;;
35835;SDS011;21955;50.580;7.228;2022-09-25T14:12:13;4.78;;;0.85;;
35835;SDS011;21955;50.580;7.228;2022-09-25T14:14:44;3.92;;;0.93;;
35835;SDS011;21955;50.580;7.228;2022-09-25T14:17:17;6.10;;;1.60;;
35835;SDS011;21955;50.580;7.228;2022-09-25T14:19:46;5.65;;;1.20;;
35835;SDS011;21955;50.580;7.228;2022-09-25T14:22:16;3.03;;;0.90;;
35835;SDS011;21955;50.580;7.228;2022-09-25T14:24:45;3.65;;;1.30;;
35835;SDS011;21955;50.580;7.228;2022-09-25T14:27:15;2.97;;;0.90;;
35835;SDS011;21955;50.580;7.228;2022-09-25T14:29:45;2.67;;;0.73;;
35835;SDS011;21955;50.580;7.228;2022-09-25T14:32:15;4.20;;;1.00;;
35835;SDS011;21955;50.580;7.228;2022-09-25T14:34:48;3.08;;;1.08;;
35835;SDS011;21955;50.580;7.228;2022-09-25T14:37:22;2.67;;;0.80;;
35835;SDS011;21955;50.580;7.228;2022-09-25T14:39:56;2.67;;;0.82;;
35835;SDS011;21955;50.580;7.228;2022-09-25T14:42:31;2.58;;;0.75;;
35835;SDS011;21955;50.580;7.228;2022-09-25T14:45:05;2.08;;;0.70;;
35835;SDS011;21955;50.580;7.228;2022-09-25T14:47:39;3.03;;;0.90;;
35835;SDS011;21955;50.580;7.228;2022-09-25T14:50:09;3.38;;;0.70;;
35835;SDS011;21955;50.580;7.228;2022-09-25T14:52:42;3.30;;;1.00;;
35835;SDS011;21955;50.580;7.228;2022-09-25T14:55:14;3.53;;;1.00;;
35835;SDS011;21955;50.580;7.228;2022-09-25T14:57:46;3.72;;;1.00;;
35835;SDS011;21955;50.580;7.228;2022-09-25T15:00:14;5.10;;;1.00;;
35835;SDS011;21955;50.580;7.228;2022-09-25T15:02:42;3.78;;;1.30;;